Portada
METAR-TAF:

METAR-TAF

Aeropuertos :

Wakkanai, Japón

latitud: 45-24N, longitud: 141-48E, altitud: 8 m

Observación

El informe se hizo hace 14 horas y 39 minutos, a las 09:00 UTC
Viento 11 kt del este-noreste
Temperatura 11°C
Humedad 100%
Presión 1007 hPa
Visibilidad: 5000 m
Escasas nubes a una altura de 200 ft
Nubes dispersas a una altura de 300 ft
Cielo nuboso a una altura de 400 ft
chaparrones de lluvia, neblina,

METAR: RJCW 210900Z 06011KT 5000 -SHRA BR FEW002 SCT003 BKN004 11/11 Q1007

Hora: 08:39 (23:39 UTC)


TAF: falta

Observaciones y pronósticos meteorológicos de más de 4000 aeropuertos (mensajes METAR y TAF).

Los puntos amarillos y rojos representan las estaciones disponibles.

Ponga el ratón en el punto deseado para ver el nombre de la estación.

Haga clic para ver las observaciones y los pronósticos meteorológicos.

Para cambiar el mapa : haga clic en los botones verdes con una cruz de color negro para hacer un zoom, en el botón verde con un guión para alejar o en las flechas verdes para mapas adyacentes.


METAR-TAF: